sensor_id;sensor_type;location;lat;lon;timestamp;temperature;humidity
17986;DHT22;9118;48.122;11.546;2022-12-07T00:00:28;3.50;99.90
17986;DHT22;9118;48.122;11.546;2022-12-07T00:02:55;3.50;99.90
17986;DHT22;9118;48.122;11.546;2022-12-07T00:05:22;3.40;99.90
17986;DHT22;9118;48.122;11.546;2022-12-07T00:07:49;3.50;99.90
17986;DHT22;9118;48.122;11.546;2022-12-07T00:10:17;3.60;99.90
17986;DHT22;9118;48.122;11.546;2022-12-07T00:12:45;3.50;99.90
17986;DHT22;9118;48.122;11.546;2022-12-07T00:15:12;3.50;99.90
17986;DHT22;9118;48.122;11.546;2022-12-07T00:17:42;3.60;99.90
17986;DHT22;9118;48.122;11.546;2022-12-07T00:20:09;3.50;99.90
17986;DHT22;9118;48.122;11.546;2022-12-07T00:22:36;3.60;99.90
17986;DHT22;9118;48.122;11.546;2022-12-07T00:25:04;3.40;99.90
17986;DHT22;9118;48.122;11.546;2022-12-07T00:27:32;3.20;99.90
17986;DHT22;9118;48.122;11.546;2022-12-07T00:29:59;3.20;99.90
17986;DHT22;9118;48.122;11.546;2022-12-07T00:32:29;3.30;99.90
17986;DHT22;9118;48.122;11.546;2022-12-07T00:34:56;3.10;99.90
17986;DHT22;9118;48.122;11.546;2022-12-07T00:37:23;3.20;99.90
17986;DHT22;9118;48.122;11.546;2022-12-07T00:39:50;3.20;99.90
17986;DHT22;9118;48.122;11.546;2022-12-07T00:42:17;3.10;99.90
17986;DHT22;9118;48.122;11.546;2022-12-07T00:44:46;3.20;99.90
17986;DHT22;9118;48.122;11.546;2022-12-07T00:47:13;3.30;99.90
17986;DHT22;9118;48.122;11.546;2022-12-07T00:49:39;3.40;99.90
17986;DHT22;9118;48.122;11.546;2022-12-07T00:52:06;3.20;99.90
17986;DHT22;9118;48.122;11.546;2022-12-07T00:54:39;3.30;99.90
17986;DHT22;9118;48.122;11.546;2022-12-07T00:57:06;3.30;99.90
17986;DHT22;9118;48.122;11.546;2022-12-07T00:59:33;3.30;99.90
17986;DHT22;9118;48.122;11.546;2022-12-07T01:02:01;3.40;99.90
17986;DHT22;9118;48.122;11.546;2022-12-07T01:04:28;3.30;99.90
17986;DHT22;9118;48.122;11.546;2022-12-07T01:06:56;3.40;99.90
17986;DHT22;9118;48.122;11.546;2022-12-07T01:09:23;3.40;99.90
17986;DHT22;9118;48.122;11.546;2022-12-07T01:11:50;3.60;99.90
17986;DHT22;9118;48.122;11.546;2022-12-07T01:14:17;3.50;99.90
17986;DHT22;9118;48.122;11.546;2022-12-07T01:16:44;3.50;99.90
17986;DHT22;9118;48.122;11.546;2022-12-07T01:19:12;3.70;99.90
17986;DHT22;9118;48.122;11.546;2022-12-07T01:21:39;3.70;99.90
17986;DHT22;9118;48.122;11.546;2022-12-07T01:24:10;3.70;99.90
17986;DHT22;9118;48.122;11.546;2022-12-07T01:26:38;3.70;99.90
17986;DHT22;9118;48.122;11.546;2022-12-07T01:29:05;3.60;99.90
17986;DHT22;9118;48.122;11.546;2022-12-07T01:31:32;3.50;99.90
17986;DHT22;9118;48.122;11.546;2022-12-07T01:34:00;3.40;99.90
17986;DHT22;9118;48.122;11.546;2022-12-07T01:36:30;3.30;99.90
17986;DHT22;9118;48.122;11.546;2022-12-07T01:38:59;3.20;99.90
17986;DHT22;9118;48.122;11.546;2022-12-07T01:41:28;3.10;99.90
17986;DHT22;9118;48.122;11.546;2022-12-07T01:44:21;3.20;99.90
17986;DHT22;9118;48.122;11.546;2022-12-07T01:46:49;3.20;99.90
17986;DHT22;9118;48.122;11.546;2022-12-07T01:49:23;3.30;99.90
17986;DHT22;9118;48.122;11.546;2022-12-07T01:52:09;3.20;99.90
17986;DHT22;9118;48.122;11.546;2022-12-07T01:54:44;3.20;99.90
17986;DHT22;9118;48.122;11.546;2022-12-07T01:57:18;3.40;99.90
17986;DHT22;9118;48.122;11.546;2022-12-07T01:59:47;3.50;99.90
17986;DHT22;9118;48.122;11.546;2022-12-07T02:02:19;3.50;99.90
17986;DHT22;9118;48.122;11.546;2022-12-07T02:04:46;3.60;99.90
17986;DHT22;9118;48.122;11.546;2022-12-07T02:07:15;3.40;99.90
17986;DHT22;9118;48.122;11.546;2022-12-07T02:09:42;3.30;99.90
17986;DHT22;9118;48.122;11.546;2022-12-07T02:12:09;3.50;99.90
17986;DHT22;9118;48.122;11.546;2022-12-07T02:14:36;3.30;99.90
17986;DHT22;9118;48.122;11.546;2022-12-07T02:17:14;3.20;99.90
17986;DHT22;9118;48.122;11.546;2022-12-07T02:20:14;3.30;99.90
17986;DHT22;9118;48.122;11.546;2022-12-07T02:23:18;3.50;99.90
17986;DHT22;9118;48.122;11.546;2022-12-07T02:31:32;3.80;99.90
17986;DHT22;9118;48.122;11.546;2022-12-07T02:34:05;3.60;99.90
17986;DHT22;9118;48.122;11.546;2022-12-07T02:36:39;3.40;99.90
17986;DHT22;9118;48.122;11.546;2022-12-07T02:39:14;3.20;99.90
17986;DHT22;9118;48.122;11.546;2022-12-07T02:41:46;3.10;99.90
17986;DHT22;9118;48.122;11.546;2022-12-07T02:44:18;3.20;99.90
17986;DHT22;9118;48.122;11.546;2022-12-07T02:46:49;3.40;99.90
17986;DHT22;9118;48.122;11.546;2022-12-07T02:49:18;3.60;99.90
17986;DHT22;9118;48.122;11.546;2022-12-07T02:51:46;3.70;99.90
17986;DHT22;9118;48.122;11.546;2022-12-07T02:54:15;3.70;99.90
17986;DHT22;9118;48.122;11.546;2022-12-07T02:56:47;3.50;99.90
17986;DHT22;9118;48.122;11.546;2022-12-07T02:59:25;3.40;99.90
17986;DHT22;9118;48.122;11.546;2022-12-07T03:02:00;3.40;99.90
17986;DHT22;9118;48.122;11.546;2022-12-07T03:04:37;3.20;99.90
17986;DHT22;9118;48.122;11.546;2022-12-07T03:07:13;3.10;99.90
17986;DHT22;9118;48.122;11.546;2022-12-07T03:09:48;3.30;99.90
17986;DHT22;9118;48.122;11.546;2022-12-07T03:12:19;3.40;99.90
17986;DHT22;9118;48.122;11.546;2022-12-07T03:14:55;3.50;99.90
17986;DHT22;9118;48.122;11.546;2022-12-07T03:17:26;3.30;99.90
17986;DHT22;9118;48.122;11.546;2022-12-07T03:19:58;3.40;99.90
17986;DHT22;9118;48.122;11.546;2022-12-07T03:22:28;3.40;99.90
17986;DHT22;9118;48.122;11.546;2022-12-07T03:24:59;3.40;99.90
17986;DHT22;9118;48.122;11.546;2022-12-07T03:27:30;3.30;99.90
17986;DHT22;9118;48.122;11.546;2022-12-07T03:30:03;3.30;99.90
17986;DHT22;9118;48.122;11.546;2022-12-07T03:32:34;3.30;99.90
17986;DHT22;9118;48.122;11.546;2022-12-07T03:35:07;3.30;99.90
17986;DHT22;9118;48.122;11.546;2022-12-07T03:37:39;3.10;99.90
17986;DHT22;9118;48.122;11.546;2022-12-07T03:40:14;3.20;99.90
17986;DHT22;9118;48.122;11.546;2022-12-07T03:42:42;3.10;99.90
17986;DHT22;9118;48.122;11.546;2022-12-07T03:45:11;3.20;99.90
17986;DHT22;9118;48.122;11.546;2022-12-07T03:47:47;3.20;99.90
17986;DHT22;9118;48.122;11.546;2022-12-07T03:50:21;3.00;99.90
17986;DHT22;9118;48.122;11.546;2022-12-07T03:52:54;3.10;99.90
17986;DHT22;9118;48.122;11.546;2022-12-07T03:55:27;3.00;99.90
17986;DHT22;9118;48.122;11.546;2022-12-07T03:57:56;3.00;99.90
17986;DHT22;9118;48.122;11.546;2022-12-07T04:00:27;3.10;99.90
17986;DHT22;9118;48.122;11.546;2022-12-07T04:02:54;3.20;99.90
17986;DHT22;9118;48.122;11.546;2022-12-07T04:05:22;3.20;99.90
17986;DHT22;9118;48.122;11.546;2022-12-07T04:07:49;3.20;99.90
17986;DHT22;9118;48.122;11.546;2022-12-07T04:10:16;3.20;99.90
17986;DHT22;9118;48.122;11.546;2022-12-07T04:12:43;3.40;99.90
17986;DHT22;9118;48.122;11.546;2022-12-07T04:15:10;3.50;99.90
17986;DHT22;9118;48.122;11.546;2022-12-07T04:17:39;3.40;99.90
17986;DHT22;9118;48.122;11.546;2022-12-07T04:20:08;3.30;99.90
17986;DHT22;9118;48.122;11.546;2022-12-07T04:22:35;3.30;99.90
17986;DHT22;9118;48.122;11.546;2022-12-07T04:25:02;3.30;99.90
17986;DHT22;9118;48.122;11.546;2022-12-07T04:27:29;3.00;99.90
17986;DHT22;9118;48.122;11.546;2022-12-07T04:29:56;2.90;99.90
17986;DHT22;9118;48.122;11.546;2022-12-07T04:32:23;3.00;99.90
17986;DHT22;9118;48.122;11.546;2022-12-07T04:34:51;2.90;99.90
17986;DHT22;9118;48.122;11.546;2022-12-07T04:37:18;2.70;99.90
17986;DHT22;9118;48.122;11.546;2022-12-07T04:39:45;2.50;99.90
17986;DHT22;9118;48.122;11.546;2022-12-07T04:42:12;3.00;99.90
17986;DHT22;9118;48.122;11.546;2022-12-07T04:44:39;3.00;99.90
17986;DHT22;9118;48.122;11.546;2022-12-07T04:47:06;3.00;99.90
17986;DHT22;9118;48.122;11.546;2022-12-07T04:49:36;3.00;99.90
17986;DHT22;9118;48.122;11.546;2022-12-07T04:52:05;3.00;99.90
17986;DHT22;9118;48.122;11.546;2022-12-07T04:54:32;2.90;99.90
17986;DHT22;9118;48.122;11.546;2022-12-07T04:56:59;3.10;99.90
17986;DHT22;9118;48.122;11.546;2022-12-07T04:59:26;3.30;99.90
17986;DHT22;9118;48.122;11.546;2022-12-07T05:01:53;3.20;99.90
17986;DHT22;9118;48.122;11.546;2022-12-07T05:04:21;3.30;99.90
17986;DHT22;9118;48.122;11.546;2022-12-07T05:06:49;3.40;99.90
17986;DHT22;9118;48.122;11.546;2022-12-07T05:09:17;3.40;99.90
17986;DHT22;9118;48.122;11.546;2022-12-07T05:11:44;3.10;99.90
17986;DHT22;9118;48.122;11.546;2022-12-07T05:14:13;2.90;99.90
17986;DHT22;9118;48.122;11.546;2022-12-07T05:16:41;2.80;99.90
17986;DHT22;9118;48.122;11.546;2022-12-07T05:19:09;2.90;99.90
17986;DHT22;9118;48.122;11.546;2022-12-07T05:21:36;2.90;99.90
17986;DHT22;9118;48.122;11.546;2022-12-07T05:24:04;2.70;99.90
17986;DHT22;9118;48.122;11.546;2022-12-07T05:26:33;2.60;99.90
17986;DHT22;9118;48.122;11.546;2022-12-07T05:29:01;2.50;99.90
17986;DHT22;9118;48.122;11.546;2022-12-07T05:31:28;2.70;99.90
17986;DHT22;9118;48.122;11.546;2022-12-07T05:33:55;2.70;99.90
17986;DHT22;9118;48.122;11.546;2022-12-07T05:36:22;2.70;99.90
17986;DHT22;9118;48.122;11.546;2022-12-07T05:38:49;2.90;99.90
17986;DHT22;9118;48.122;11.546;2022-12-07T05:41:17;3.10;99.90
17986;DHT22;9118;48.122;11.546;2022-12-07T05:44:04;3.10;99.90
17986;DHT22;9118;48.122;11.546;2022-12-07T05:46:34;3.20;99.90
17986;DHT22;9118;48.122;11.546;2022-12-07T05:49:04;2.80;99.90
17986;DHT22;9118;48.122;11.546;2022-12-07T05:51:30;2.70;99.90
17986;DHT22;9118;48.122;11.546;2022-12-07T05:53:58;2.60;99.90
17986;DHT22;9118;48.122;11.546;2022-12-07T05:56:25;2.70;99.90
17986;DHT22;9118;48.122;11.546;2022-12-07T05:58:52;2.70;99.90
17986;DHT22;9118;48.122;11.546;2022-12-07T06:01:37;2.60;99.90
17986;DHT22;9118;48.122;11.546;2022-12-07T06:04:04;2.60;99.90
17986;DHT22;9118;48.122;11.546;2022-12-07T06:06:31;2.70;99.90
17986;DHT22;9118;48.122;11.546;2022-12-07T06:09:02;2.70;99.90
17986;DHT22;9118;48.122;11.546;2022-12-07T06:11:29;2.60;99.90
17986;DHT22;9118;48.122;11.546;2022-12-07T06:14:13;2.70;99.90
17986;DHT22;9118;48.122;11.546;2022-12-07T06:16:42;2.70;99.90
17986;DHT22;9118;48.122;11.546;2022-12-07T06:19:09;2.50;99.90
17986;DHT22;9118;48.122;11.546;2022-12-07T06:21:36;2.60;99.90
17986;DHT22;9118;48.122;11.546;2022-12-07T06:24:03;2.60;99.90
17986;DHT22;9118;48.122;11.546;2022-12-07T06:26:31;2.60;99.90
17986;DHT22;9118;48.122;11.546;2022-12-07T06:28:58;2.70;99.90
17986;DHT22;9118;48.122;11.546;2022-12-07T06:31:25;2.60;99.90
17986;DHT22;9118;48.122;11.546;2022-12-07T06:33:57;2.60;99.90
17986;DHT22;9118;48.122;11.546;2022-12-07T06:36:24;2.60;99.90
17986;DHT22;9118;48.122;11.546;2022-12-07T06:38:51;2.60;99.90
17986;DHT22;9118;48.122;11.546;2022-12-07T06:41:19;2.50;99.90
17986;DHT22;9118;48.122;11.546;2022-12-07T06:43:46;2.50;99.90
17986;DHT22;9118;48.122;11.546;2022-12-07T06:46:14;2.60;99.90
17986;DHT22;9118;48.122;11.546;2022-12-07T06:48:42;2.50;99.90
17986;DHT22;9118;48.122;11.546;2022-12-07T06:51:11;2.50;99.90
17986;DHT22;9118;48.122;11.546;2022-12-07T06:53:40;2.60;99.90
17986;DHT22;9118;48.122;11.546;2022-12-07T06:56:07;2.70;99.90
17986;DHT22;9118;48.122;11.546;2022-12-07T06:58:35;2.70;99.90
17986;DHT22;9118;48.122;11.546;2022-12-07T07:01:02;2.70;99.90
17986;DHT22;9118;48.122;11.546;2022-12-07T07:03:29;2.90;99.90
17986;DHT22;9118;48.122;11.546;2022-12-07T07:05:56;2.90;99.90
17986;DHT22;9118;48.122;11.546;2022-12-07T07:08:24;2.90;99.90
17986;DHT22;9118;48.122;11.546;2022-12-07T07:10:51;3.00;99.90
17986;DHT22;9118;48.122;11.546;2022-12-07T07:13:19;2.90;99.90
17986;DHT22;9118;48.122;11.546;2022-12-07T07:15:46;3.00;99.90
17986;DHT22;9118;48.122;11.546;2022-12-07T07:18:13;2.80;99.90
17986;DHT22;9118;48.122;11.546;2022-12-07T07:20:41;2.90;99.90
17986;DHT22;9118;48.122;11.546;2022-12-07T07:23:08;2.70;99.90
17986;DHT22;9118;48.122;11.546;2022-12-07T07:25:44;2.70;99.90
17986;DHT22;9118;48.122;11.546;2022-12-07T07:28:11;2.70;99.90
17986;DHT22;9118;48.122;11.546;2022-12-07T07:30:38;2.70;99.90
17986;DHT22;9118;48.122;11.546;2022-12-07T07:33:06;2.70;99.90
17986;DHT22;9118;48.122;11.546;2022-12-07T07:35:34;2.70;99.90
17986;DHT22;9118;48.122;11.546;2022-12-07T07:38:02;2.90;99.90
17986;DHT22;9118;48.122;11.546;2022-12-07T07:40:29;3.00;99.90
17986;DHT22;9118;48.122;11.546;2022-12-07T07:42:58;3.10;99.90
17986;DHT22;9118;48.122;11.546;2022-12-07T07:45:26;3.30;99.90
17986;DHT22;9118;48.122;11.546;2022-12-07T07:47:53;3.30;99.90
17986;DHT22;9118;48.122;11.546;2022-12-07T07:50:21;3.40;99.90
17986;DHT22;9118;48.122;11.546;2022-12-07T07:52:48;3.40;99.90
17986;DHT22;9118;48.122;11.546;2022-12-07T07:55:15;3.10;99.90
17986;DHT22;9118;48.122;11.546;2022-12-07T07:57:42;3.30;99.90
17986;DHT22;9118;48.122;11.546;2022-12-07T08:00:13;3.50;99.90
17986;DHT22;9118;48.122;11.546;2022-12-07T08:02:41;3.50;99.90
17986;DHT22;9118;48.122;11.546;2022-12-07T08:05:12;3.60;99.90
17986;DHT22;9118;48.122;11.546;2022-12-07T08:07:39;3.60;99.90
17986;DHT22;9118;48.122;11.546;2022-12-07T08:10:08;3.70;99.90
17986;DHT22;9118;48.122;11.546;2022-12-07T08:12:36;3.60;99.90
17986;DHT22;9118;48.122;11.546;2022-12-07T08:15:28;3.70;99.90
17986;DHT22;9118;48.122;11.546;2022-12-07T08:17:55;3.90;99.90
17986;DHT22;9118;48.122;11.546;2022-12-07T08:20:24;3.90;99.90
17986;DHT22;9118;48.122;11.546;2022-12-07T08:22:51;4.00;99.90
17986;DHT22;9118;48.122;11.546;2022-12-07T08:25:18;3.90;99.90
17986;DHT22;9118;48.122;11.546;2022-12-07T08:27:45;3.80;99.90
17986;DHT22;9118;48.122;11.546;2022-12-07T08:30:13;3.70;99.90
17986;DHT22;9118;48.122;11.546;2022-12-07T08:32:43;3.80;99.90
17986;DHT22;9118;48.122;11.546;2022-12-07T08:35:11;4.00;99.90
17986;DHT22;9118;48.122;11.546;2022-12-07T08:37:38;4.10;99.90
17986;DHT22;9118;48.122;11.546;2022-12-07T08:40:08;4.20;99.90
17986;DHT22;9118;48.122;11.546;2022-12-07T08:42:43;4.30;99.90
17986;DHT22;9118;48.122;11.546;2022-12-07T08:45:13;4.30;99.90
17986;DHT22;9118;48.122;11.546;2022-12-07T08:47:44;4.40;99.90
17986;DHT22;9118;48.122;11.546;2022-12-07T08:50:13;4.40;99.90
17986;DHT22;9118;48.122;11.546;2022-12-07T08:52:41;4.50;99.90
17986;DHT22;9118;48.122;11.546;2022-12-07T08:55:11;4.40;99.90
17986;DHT22;9118;48.122;11.546;2022-12-07T08:57:39;4.50;99.90
17986;DHT22;9118;48.122;11.546;2022-12-07T09:00:09;4.40;99.90
17986;DHT22;9118;48.122;11.546;2022-12-07T09:02:37;4.50;99.90
17986;DHT22;9118;48.122;11.546;2022-12-07T09:05:08;4.50;99.90
17986;DHT22;9118;48.122;11.546;2022-12-07T09:07:36;4.50;99.90
17986;DHT22;9118;48.122;11.546;2022-12-07T09:10:04;4.50;99.90
17986;DHT22;9118;48.122;11.546;2022-12-07T09:12:32;4.60;99.90
17986;DHT22;9118;48.122;11.546;2022-12-07T09:14:59;4.70;99.90
17986;DHT22;9118;48.122;11.546;2022-12-07T09:17:26;4.80;99.90
17986;DHT22;9118;48.122;11.546;2022-12-07T09:19:54;4.90;99.90
17986;DHT22;9118;48.122;11.546;2022-12-07T09:22:22;4.70;99.90
17986;DHT22;9118;48.122;11.546;2022-12-07T09:24:50;4.90;99.90
17986;DHT22;9118;48.122;11.546;2022-12-07T09:27:26;4.90;99.90
17986;DHT22;9118;48.122;11.546;2022-12-07T09:29:54;5.00;99.90
17986;DHT22;9118;48.122;11.546;2022-12-07T09:32:21;5.00;99.90
17986;DHT22;9118;48.122;11.546;2022-12-07T09:34:48;5.10;99.90
17986;DHT22;9118;48.122;11.546;2022-12-07T09:37:16;5.20;99.90
17986;DHT22;9118;48.122;11.546;2022-12-07T09:39:47;5.30;99.90
17986;DHT22;9118;48.122;11.546;2022-12-07T09:42:26;5.10;99.90
17986;DHT22;9118;48.122;11.546;2022-12-07T09:44:54;5.10;99.90
17986;DHT22;9118;48.122;11.546;2022-12-07T09:47:22;5.30;99.90
17986;DHT22;9118;48.122;11.546;2022-12-07T09:49:49;5.30;99.90
17986;DHT22;9118;48.122;11.546;2022-12-07T09:52:24;5.30;99.90
17986;DHT22;9118;48.122;11.546;2022-12-07T09:55:03;5.50;99.90
17986;DHT22;9118;48.122;11.546;2022-12-07T09:57:36;5.50;99.90
17986;DHT22;9118;48.122;11.546;2022-12-07T10:00:09;5.40;99.90
17986;DHT22;9118;48.122;11.546;2022-12-07T10:03:05;5.30;99.90
17986;DHT22;9118;48.122;11.546;2022-12-07T10:05:52;5.40;99.90
17986;DHT22;9118;48.122;11.546;2022-12-07T10:08:24;5.30;99.90
17986;DHT22;9118;48.122;11.546;2022-12-07T10:10:54;6.40;99.90
17986;DHT22;9118;48.122;11.546;2022-12-07T10:13:34;5.40;99.90
17986;DHT22;9118;48.122;11.546;2022-12-07T10:16:02;5.40;99.90
17986;DHT22;9118;48.122;11.546;2022-12-07T10:18:35;5.50;99.90
17986;DHT22;9118;48.122;11.546;2022-12-07T10:21:11;6.20;99.90
17986;DHT22;9118;48.122;11.546;2022-12-07T10:23:42;5.80;99.90
17986;DHT22;9118;48.122;11.546;2022-12-07T10:27:01;6.00;99.90
17986;DHT22;9118;48.122;11.546;2022-12-07T10:29:31;5.90;99.90
17986;DHT22;9118;48.122;11.546;2022-12-07T10:31:59;5.90;99.90
17986;DHT22;9118;48.122;11.546;2022-12-07T10:34:34;5.90;99.90
17986;DHT22;9118;48.122;11.546;2022-12-07T10:37:16;5.60;99.90
17986;DHT22;9118;48.122;11.546;2022-12-07T10:39:45;5.50;99.90
17986;DHT22;9118;48.122;11.546;2022-12-07T10:42:18;5.50;99.90
17986;DHT22;9118;48.122;11.546;2022-12-07T10:44:48;5.40;99.90
17986;DHT22;9118;48.122;11.546;2022-12-07T10:47:23;5.60;99.90
17986;DHT22;9118;48.122;11.546;2022-12-07T10:53:10;6.00;99.90
17986;DHT22;9118;48.122;11.546;2022-12-07T10:56:05;6.20;99.90
17986;DHT22;9118;48.122;11.546;2022-12-07T10:58:50;6.30;99.90
17986;DHT22;9118;48.122;11.546;2022-12-07T11:01:40;6.10;99.90
17986;DHT22;9118;48.122;11.546;2022-12-07T11:04:24;6.10;99.90
17986;DHT22;9118;48.122;11.546;2022-12-07T11:07:01;6.10;99.90
17986;DHT22;9118;48.122;11.546;2022-12-07T11:09:50;6.10;99.90
17986;DHT22;9118;48.122;11.546;2022-12-07T11:12:29;6.10;99.90
17986;DHT22;9118;48.122;11.546;2022-12-07T11:15:07;6.30;99.90
17986;DHT22;9118;48.122;11.546;2022-12-07T11:17:47;6.30;99.90
17986;DHT22;9118;48.122;11.546;2022-12-07T11:20:29;6.20;99.90
17986;DHT22;9118;48.122;11.546;2022-12-07T11:23:02;6.30;99.90
17986;DHT22;9118;48.122;11.546;2022-12-07T11:25:39;6.30;99.90
17986;DHT22;9118;48.122;11.546;2022-12-07T11:28:23;6.10;99.90
17986;DHT22;9118;48.122;11.546;2022-12-07T11:31:03;6.10;99.90
17986;DHT22;9118;48.122;11.546;2022-12-07T11:33:36;6.10;99.90
17986;DHT22;9118;48.122;11.546;2022-12-07T11:36:17;6.00;99.90
17986;DHT22;9118;48.122;11.546;2022-12-07T11:38:54;6.20;99.90
17986;DHT22;9118;48.122;11.546;2022-12-07T11:41:28;6.50;99.90
17986;DHT22;9118;48.122;11.546;2022-12-07T11:44:02;6.80;99.90
17986;DHT22;9118;48.122;11.546;2022-12-07T11:46:45;6.70;99.90
17986;DHT22;9118;48.122;11.546;2022-12-07T11:49:19;6.70;99.90
17986;DHT22;9118;48.122;11.546;2022-12-07T11:51:50;6.70;99.90
17986;DHT22;9118;48.122;11.546;2022-12-07T11:54:23;6.70;99.90
17986;DHT22;9118;48.122;11.546;2022-12-07T11:56:54;6.40;99.90
17986;DHT22;9118;48.122;11.546;2022-12-07T11:59:27;6.30;99.90
17986;DHT22;9118;48.122;11.546;2022-12-07T12:02:03;6.40;99.90
17986;DHT22;9118;48.122;11.546;2022-12-07T12:04:54;6.40;99.90
17986;DHT22;9118;48.122;11.546;2022-12-07T12:07:24;6.40;99.90
17986;DHT22;9118;48.122;11.546;2022-12-07T12:09:55;6.50;99.90
17986;DHT22;9118;48.122;11.546;2022-12-07T12:12:41;6.10;99.90
17986;DHT22;9118;48.122;11.546;2022-12-07T12:15:23;5.70;99.90
17986;DHT22;9118;48.122;11.546;2022-12-07T12:20:51;5.80;99.90
17986;DHT22;9118;48.122;11.546;2022-12-07T12:23:28;5.90;99.90
17986;DHT22;9118;48.122;11.546;2022-12-07T12:26:07;5.90;99.90
17986;DHT22;9118;48.122;11.546;2022-12-07T12:28:48;5.80;99.90
17986;DHT22;9118;48.122;11.546;2022-12-07T12:31:28;5.50;99.90
17986;DHT22;9118;48.122;11.546;2022-12-07T12:34:01;5.70;99.90
17986;DHT22;9118;48.122;11.546;2022-12-07T12:36:46;5.80;99.90
17986;DHT22;9118;48.122;11.546;2022-12-07T12:39:14;5.80;99.90
17986;DHT22;9118;48.122;11.546;2022-12-07T12:41:56;5.60;99.90
17986;DHT22;9118;48.122;11.546;2022-12-07T12:45:04;5.60;99.90
17986;DHT22;9118;48.122;11.546;2022-12-07T12:47:53;5.60;99.90
17986;DHT22;9118;48.122;11.546;2022-12-07T12:50:24;5.50;99.90
17986;DHT22;9118;48.122;11.546;2022-12-07T12:53:13;5.70;99.90
17986;DHT22;9118;48.122;11.546;2022-12-07T12:56:10;6.00;99.90
17986;DHT22;9118;48.122;11.546;2022-12-07T12:58:42;6.10;99.90
17986;DHT22;9118;48.122;11.546;2022-12-07T13:01:36;6.30;99.90
17986;DHT22;9118;48.122;11.546;2022-12-07T13:04:28;6.40;99.90
17986;DHT22;9118;48.122;11.546;2022-12-07T13:06:59;6.20;99.90
17986;DHT22;9118;48.122;11.546;2022-12-07T13:09:28;6.10;99.90
17986;DHT22;9118;48.122;11.546;2022-12-07T13:11:59;6.20;99.90
17986;DHT22;9118;48.122;11.546;2022-12-07T13:14:40;6.40;99.90
17986;DHT22;9118;48.122;11.546;2022-12-07T13:17:09;6.40;99.90
17986;DHT22;9118;48.122;11.546;2022-12-07T13:19:57;6.60;99.90
17986;DHT22;9118;48.122;11.546;2022-12-07T13:22:46;6.80;99.90
17986;DHT22;9118;48.122;11.546;2022-12-07T13:25:21;7.00;99.90
17986;DHT22;9118;48.122;11.546;2022-12-07T13:27:54;6.50;99.90
17986;DHT22;9118;48.122;11.546;2022-12-07T13:30:23;6.20;99.90
17986;DHT22;9118;48.122;11.546;2022-12-07T13:32:52;6.00;99.90
17986;DHT22;9118;48.122;11.546;2022-12-07T13:35:31;6.10;99.90
17986;DHT22;9118;48.122;11.546;2022-12-07T13:38:02;6.20;99.90
17986;DHT22;9118;48.122;11.546;2022-12-07T13:40:29;6.40;99.90
17986;DHT22;9118;48.122;11.546;2022-12-07T13:43:00;6.40;99.90
17986;DHT22;9118;48.122;11.546;2022-12-07T13:45:29;6.20;99.90
17986;DHT22;9118;48.122;11.546;2022-12-07T13:48:22;5.70;99.90
17986;DHT22;9118;48.122;11.546;2022-12-07T13:50:55;5.10;99.90
17986;DHT22;9118;48.122;11.546;2022-12-07T13:53:25;4.80;99.90
17986;DHT22;9118;48.122;11.546;2022-12-07T13:55:56;4.70;99.90
17986;DHT22;9118;48.122;11.546;2022-12-07T13:58:24;4.70;99.90
17986;DHT22;9118;48.122;11.546;2022-12-07T14:00:51;4.70;99.90
17986;DHT22;9118;48.122;11.546;2022-12-07T14:03:32;4.70;99.90
17986;DHT22;9118;48.122;11.546;2022-12-07T14:06:17;4.70;99.90
17986;DHT22;9118;48.122;11.546;2022-12-07T14:08:46;4.60;99.90
17986;DHT22;9118;48.122;11.546;2022-12-07T14:11:17;4.40;99.90
17986;DHT22;9118;48.122;11.546;2022-12-07T14:13:56;4.50;99.90
17986;DHT22;9118;48.122;11.546;2022-12-07T14:16:28;4.40;99.90
17986;DHT22;9118;48.122;11.546;2022-12-07T14:18:56;4.40;99.90
17986;DHT22;9118;48.122;11.546;2022-12-07T14:21:25;4.30;99.90
17986;DHT22;9118;48.122;11.546;2022-12-07T14:24:18;4.30;99.90
17986;DHT22;9118;48.122;11.546;2022-12-07T14:26:47;4.50;99.90
17986;DHT22;9118;48.122;11.546;2022-12-07T14:29:44;4.60;99.90
17986;DHT22;9118;48.122;11.546;2022-12-07T14:32:23;4.60;99.90
17986;DHT22;9118;48.122;11.546;2022-12-07T14:34:55;4.50;99.90
17986;DHT22;9118;48.122;11.546;2022-12-07T14:37:23;4.60;99.90
17986;DHT22;9118;48.122;11.546;2022-12-07T14:40:03;4.60;99.90
17986;DHT22;9118;48.122;11.546;2022-12-07T14:42:31;4.80;99.90
17986;DHT22;9118;48.122;11.546;2022-12-07T14:44:59;4.80;99.90
17986;DHT22;9118;48.122;11.546;2022-12-07T14:47:30;4.90;99.90
17986;DHT22;9118;48.122;11.546;2022-12-07T14:49:57;5.00;99.90
17986;DHT22;9118;48.122;11.546;2022-12-07T14:52:27;4.90;99.90
17986;DHT22;9118;48.122;11.546;2022-12-07T14:54:58;4.80;99.90
17986;DHT22;9118;48.122;11.546;2022-12-07T14:57:25;4.80;99.90
17986;DHT22;9118;48.122;11.546;2022-12-07T14:59:52;4.70;99.90
17986;DHT22;9118;48.122;11.546;2022-12-07T15:02:27;4.60;99.90
17986;DHT22;9118;48.122;11.546;2022-12-07T15:04:54;4.50;99.90
17986;DHT22;9118;48.122;11.546;2022-12-07T15:07:22;4.30;99.90
17986;DHT22;9118;48.122;11.546;2022-12-07T15:09:51;4.40;99.90
17986;DHT22;9118;48.122;11.546;2022-12-07T15:12:21;4.50;99.90
17986;DHT22;9118;48.122;11.546;2022-12-07T15:14:53;4.60;99.90
17986;DHT22;9118;48.122;11.546;2022-12-07T15:17:20;4.70;99.90
17986;DHT22;9118;48.122;11.546;2022-12-07T15:19:47;5.00;99.90
17986;DHT22;9118;48.122;11.546;2022-12-07T15:22:14;4.70;99.90
17986;DHT22;9118;48.122;11.546;2022-12-07T15:24:41;4.70;99.90
17986;DHT22;9118;48.122;11.546;2022-12-07T15:27:08;4.70;99.90
17986;DHT22;9118;48.122;11.546;2022-12-07T15:29:37;4.60;99.90
17986;DHT22;9118;48.122;11.546;2022-12-07T15:32:05;4.50;99.90
17986;DHT22;9118;48.122;11.546;2022-12-07T15:34:32;4.60;99.90
17986;DHT22;9118;48.122;11.546;2022-12-07T15:36:59;4.60;99.90
17986;DHT22;9118;48.122;11.546;2022-12-07T15:39:27;4.60;99.90
17986;DHT22;9118;48.122;11.546;2022-12-07T15:41:55;4.60;99.90
17986;DHT22;9118;48.122;11.546;2022-12-07T15:44:22;4.70;99.90
17986;DHT22;9118;48.122;11.546;2022-12-07T15:47:08;4.70;99.90
17986;DHT22;9118;48.122;11.546;2022-12-07T15:49:35;4.70;99.90
17986;DHT22;9118;48.122;11.546;2022-12-07T15:52:03;4.70;99.90
17986;DHT22;9118;48.122;11.546;2022-12-07T15:54:30;4.70;99.90
17986;DHT22;9118;48.122;11.546;2022-12-07T15:56:57;4.70;99.90
17986;DHT22;9118;48.122;11.546;2022-12-07T15:59:31;4.80;99.90
17986;DHT22;9118;48.122;11.546;2022-12-07T16:01:58;4.70;99.90
17986;DHT22;9118;48.122;11.546;2022-12-07T16:04:31;4.70;99.90
17986;DHT22;9118;48.122;11.546;2022-12-07T16:07:01;4.90;99.90
17986;DHT22;9118;48.122;11.546;2022-12-07T16:09:28;4.70;99.90
17986;DHT22;9118;48.122;11.546;2022-12-07T16:11:55;4.70;99.90
17986;DHT22;9118;48.122;11.546;2022-12-07T16:14:22;4.70;99.90
17986;DHT22;9118;48.122;11.546;2022-12-07T16:16:50;4.80;99.90
17986;DHT22;9118;48.122;11.546;2022-12-07T16:19:17;4.70;99.90
17986;DHT22;9118;48.122;11.546;2022-12-07T16:21:45;4.70;99.90
17986;DHT22;9118;48.122;11.546;2022-12-07T16:24:12;4.60;99.90